sensor_id;sensor_type;location;lat;lon;timestamp;pressure;altitude;pressure_sealevel;temperature;humidity
77706;BME280;66874;45.274;5.880;2023-03-24T00:00:16;98564.59;;;12.24;72.71
77706;BME280;66874;45.274;5.880;2023-03-24T00:02:43;98557.66;;;12.23;72.72
77706;BME280;66874;45.274;5.880;2023-03-24T00:05:12;98554.28;;;12.19;72.75
77706;BME280;66874;45.274;5.880;2023-03-24T00:07:39;98557.81;;;12.18;72.73
77706;BME280;66874;45.274;5.880;2023-03-24T00:10:06;98552.59;;;12.17;72.89
77706;BME280;66874;45.274;5.880;2023-03-24T00:12:35;98546.59;;;12.13;72.87
77706;BME280;66874;45.274;5.880;2023-03-24T00:15:04;98541.41;;;12.12;73.02
77706;BME280;66874;45.274;5.880;2023-03-24T00:17:30;98547.50;;;12.12;72.99
77706;BME280;66874;45.274;5.880;2023-03-24T00:19:56;98527.47;;;12.11;72.98
77706;BME280;66874;45.274;5.880;2023-03-24T00:22:22;98526.53;;;12.12;73.02
77706;BME280;66874;45.274;5.880;2023-03-24T00:24:47;98530.06;;;12.11;72.99
77706;BME280;66874;45.274;5.880;2023-03-24T00:27:13;98519.59;;;12.11;72.79
77706;BME280;66874;45.274;5.880;2023-03-24T00:29:39;98511.72;;;12.11;73.23
77706;BME280;66874;45.274;5.880;2023-03-24T03:01:49;98488.72;;;11.66;74.96
77706;BME280;66874;45.274;5.880;2023-03-24T03:04:25;98493.03;;;11.67;75.10
77706;BME280;66874;45.274;5.880;2023-03-24T03:06:56;98495.63;;;11.69;75.05
77706;BME280;66874;45.274;5.880;2023-03-24T03:09:23;98512.31;;;11.66;75.16
77706;BME280;66874;45.274;5.880;2023-03-24T03:11:53;98501.13;;;11.61;75.23
77706;BME280;66874;45.274;5.880;2023-03-24T03:14:29;98511.69;;;11.58;75.21
77706;BME280;66874;45.274;5.880;2023-03-24T03:17:10;98509.16;;;11.55;75.54
77706;BME280;66874;45.274;5.880;2023-03-24T03:19:45;98502.31;;;11.51;75.45
77706;BME280;66874;45.274;5.880;2023-03-24T03:22:17;98509.31;;;11.51;75.62
77706;BME280;66874;45.274;5.880;2023-03-24T03:24:48;98504.13;;;11.49;75.64
77706;BME280;66874;45.274;5.880;2023-03-24T03:27:23;98496.13;;;11.54;75.65
77706;BME280;66874;45.274;5.880;2023-03-24T03:30:02;98490.84;;;11.55;75.75
77706;BME280;66874;45.274;5.880;2023-03-24T06:30:29;98642.59;;;11.61;78.29
77706;BME280;66874;45.274;5.880;2023-03-24T06:32:54;98633.91;;;11.59;78.18
77706;BME280;66874;45.274;5.880;2023-03-24T06:35:20;98625.25;;;11.57;78.50
77706;BME280;66874;45.274;5.880;2023-03-24T06:37:45;98609.66;;;11.53;78.59
77706;BME280;66874;45.274;5.880;2023-03-24T06:40:11;98606.19;;;11.52;78.89
77706;BME280;66874;45.274;5.880;2023-03-24T06:42:39;98599.16;;;11.54;78.89
77706;BME280;66874;45.274;5.880;2023-03-24T06:45:06;98586.84;;;11.56;78.68
77706;BME280;66874;45.274;5.880;2023-03-24T06:47:31;98580.56;;;11.62;78.48
77706;BME280;66874;45.274;5.880;2023-03-24T06:49:57;98576.75;;;11.72;78.59
77706;BME280;66874;45.274;5.880;2023-03-24T06:52:22;98573.72;;;11.86;78.59
77706;BME280;66874;45.274;5.880;2023-03-24T06:54:48;98571.53;;;12.00;78.27
77706;BME280;66874;45.274;5.880;2023-03-24T06:57:14;98571.19;;;12.11;78.22
77706;BME280;66874;45.274;5.880;2023-03-24T06:59:40;98580.53;;;12.18;78.22
77706;BME280;66874;45.274;5.880;2023-03-24T07:02:09;98592.84;;;12.16;78.42
77706;BME280;66874;45.274;5.880;2023-03-24T07:04:36;98590.22;;;12.16;78.35
77706;BME280;66874;45.274;5.880;2023-03-24T07:07:02;98607.81;;;12.12;78.18
77706;BME280;66874;45.274;5.880;2023-03-24T07:09:28;98623.63;;;12.11;78.12
77706;BME280;66874;45.274;5.880;2023-03-24T07:11:53;98646.31;;;12.10;78.07
77706;BME280;66874;45.274;5.880;2023-03-24T07:14:19;98658.56;;;12.11;78.05
77706;BME280;66874;45.274;5.880;2023-03-24T07:16:46;98662.19;;;12.07;78.06
77706;BME280;66874;45.274;5.880;2023-03-24T07:19:11;98664.81;;;12.06;78.01
77706;BME280;66874;45.274;5.880;2023-03-24T07:21:37;98667.44;;;12.06;78.39
77706;BME280;66874;45.274;5.880;2023-03-24T07:24:02;98672.66;;;12.07;78.09
77706;BME280;66874;45.274;5.880;2023-03-24T07:26:28;98680.53;;;12.07;78.22
77706;BME280;66874;45.274;5.880;2023-03-24T07:28:53;98672.66;;;12.07;78.38
77706;BME280;66874;45.274;5.880;2023-03-24T07:31:19;98675.38;;;12.04;78.23
77706;BME280;66874;45.274;5.880;2023-03-24T07:33:44;98670.94;;;12.06;78.65
77706;BME280;66874;45.274;5.880;2023-03-24T07:36:10;98672.44;;;12.13;78.61
77706;BME280;66874;45.274;5.880;2023-03-24T07:38:35;98672.22;;;12.21;78.65
77706;BME280;66874;45.274;5.880;2023-03-24T07:41:01;98675.34;;;12.32;78.58
77706;BME280;66874;45.274;5.880;2023-03-24T07:43:26;98665.44;;;12.42;78.41
77706;BME280;66874;45.274;5.880;2023-03-24T07:45:52;98667.78;;;12.50;78.28
77706;BME280;66874;45.274;5.880;2023-03-24T07:48:17;98667.56;;;12.56;78.27
77706;BME280;66874;45.274;5.880;2023-03-24T07:50:43;98657.72;;;12.62;78.41
77706;BME280;66874;45.274;5.880;2023-03-24T07:53:08;98668.03;;;12.68;78.43
77706;BME280;66874;45.274;5.880;2023-03-24T07:55:36;98672.38;;;12.69;78.42
77706;BME280;66874;45.274;5.880;2023-03-24T07:58:01;98686.41;;;12.68;78.25
77706;BME280;66874;45.274;5.880;2023-03-24T08:00:27;98683.13;;;12.62;78.20
77706;BME280;66874;45.274;5.880;2023-03-24T08:02:53;98685.00;;;12.58;78.45
77706;BME280;66874;45.274;5.880;2023-03-24T08:05:20;98690.28;;;12.57;78.02
77706;BME280;66874;45.274;5.880;2023-03-24T08:07:48;98697.41;;;12.53;78.28
77706;BME280;66874;45.274;5.880;2023-03-24T08:10:18;98706.25;;;12.49;78.48
77706;BME280;66874;45.274;5.880;2023-03-24T08:12:45;98714.41;;;12.41;78.82
77706;BME280;66874;45.274;5.880;2023-03-24T08:15:11;98719.13;;;12.30;79.13
77706;BME280;66874;45.274;5.880;2023-03-24T08:17:37;98710.44;;;12.28;79.32
77706;BME280;66874;45.274;5.880;2023-03-24T08:20:04;98701.63;;;12.31;79.10
77706;BME280;66874;45.274;5.880;2023-03-24T08:22:36;98702.34;;;12.36;79.56
77706;BME280;66874;45.274;5.880;2023-03-24T08:25:03;98709.28;;;12.37;79.64
77706;BME280;66874;45.274;5.880;2023-03-24T08:27:28;98697.69;;;12.44;79.56
77706;BME280;66874;45.274;5.880;2023-03-24T08:29:54;98686.91;;;12.53;79.56
77706;BME280;66874;45.274;5.880;2023-03-24T08:32:19;98689.06;;;12.67;79.09
77706;BME280;66874;45.274;5.880;2023-03-24T08:34:45;98692.13;;;12.80;78.95
77706;BME280;66874;45.274;5.880;2023-03-24T08:37:10;98680.09;;;12.99;78.79
77706;BME280;66874;45.274;5.880;2023-03-24T08:39:36;98658.38;;;13.19;78.65
77706;BME280;66874;45.274;5.880;2023-03-24T08:42:01;98662.75;;;13.43;77.91
77706;BME280;66874;45.274;5.880;2023-03-24T08:44:27;98661.72;;;13.71;77.85
77706;BME280;66874;45.274;5.880;2023-03-24T08:46:52;98655.38;;;13.99;77.09
77706;BME280;66874;45.274;5.880;2023-03-24T08:49:17;98652.09;;;14.15;76.71
77706;BME280;66874;45.274;5.880;2023-03-24T08:51:43;98653.78;;;14.38;75.78
77706;BME280;66874;45.274;5.880;2023-03-24T08:54:09;98652.53;;;14.47;74.96
77706;BME280;66874;45.274;5.880;2023-03-24T08:56:37;98648.41;;;14.41;74.79
77706;BME280;66874;45.274;5.880;2023-03-24T08:59:03;98652.97;;;14.36;74.87
77706;BME280;66874;45.274;5.880;2023-03-24T09:01:29;98637.88;;;14.41;74.54
77706;BME280;66874;45.274;5.880;2023-03-24T09:03:56;98648.38;;;14.63;74.31
77706;BME280;66874;45.274;5.880;2023-03-24T09:06:22;98657.19;;;14.83;74.33
77706;BME280;66874;45.274;5.880;2023-03-24T09:08:47;98665.31;;;14.78;73.73
77706;BME280;66874;45.274;5.880;2023-03-24T09:11:15;98661.53;;;14.63;74.44
77706;BME280;66874;45.274;5.880;2023-03-24T09:13:41;98662.06;;;14.51;74.42
77706;BME280;66874;45.274;5.880;2023-03-24T09:16:07;98661.69;;;14.38;74.73
77706;BME280;66874;45.274;5.880;2023-03-24T09:18:32;98665.47;;;14.31;74.98
77706;BME280;66874;45.274;5.880;2023-03-24T09:20:58;98659.69;;;14.23;74.96
77706;BME280;66874;45.274;5.880;2023-03-24T09:23:23;98676.44;;;14.21;75.02
77706;BME280;66874;45.274;5.880;2023-03-24T09:25:50;98678.28;;;14.19;74.54
77706;BME280;66874;45.274;5.880;2023-03-24T09:28:16;98696.84;;;14.14;74.44
77706;BME280;66874;45.274;5.880;2023-03-24T09:30:42;98696.50;;;14.01;74.55
77706;BME280;66874;45.274;5.880;2023-03-24T09:33:08;98693.38;;;13.91;74.97
77706;BME280;66874;45.274;5.880;2023-03-24T09:35:33;98711.19;;;13.83;75.28
77706;BME280;66874;45.274;5.880;2023-03-24T09:37:59;98705.31;;;13.77;75.36
77706;BME280;66874;45.274;5.880;2023-03-24T09:40:27;98707.03;;;13.78;75.39
77706;BME280;66874;45.274;5.880;2023-03-24T09:43:01;98710.59;;;13.77;75.30
77706;BME280;66874;45.274;5.880;2023-03-24T09:45:29;98709.59;;;13.79;75.55
77706;BME280;66874;45.274;5.880;2023-03-24T09:48:11;98699.81;;;13.83;75.45
77706;BME280;66874;45.274;5.880;2023-03-24T09:50:50;98709.84;;;13.95;75.46
77706;BME280;66874;45.274;5.880;2023-03-24T09:53:38;98709.41;;;14.07;75.00
77706;BME280;66874;45.274;5.880;2023-03-24T09:56:13;98705.25;;;14.24;75.00
77706;BME280;66874;45.274;5.880;2023-03-24T09:58:39;98697.53;;;14.41;74.75
77706;BME280;66874;45.274;5.880;2023-03-24T10:01:11;98700.47;;;14.55;74.50
77706;BME280;66874;45.274;5.880;2023-03-24T10:03:37;98709.53;;;14.70;74.39
77706;BME280;66874;45.274;5.880;2023-03-24T10:06:15;98701.78;;;14.87;74.33
77706;BME280;66874;45.274;5.880;2023-03-24T10:08:50;98692.03;;;15.10;74.25
77706;BME280;66874;45.274;5.880;2023-03-24T10:11:21;98689.72;;;15.23;73.99
77706;BME280;66874;45.274;5.880;2023-03-24T10:14:13;98697.00;;;15.36;73.63
77706;BME280;66874;45.274;5.880;2023-03-24T10:22:51;98693.19;;;15.44;73.07
77706;BME280;66874;45.274;5.880;2023-03-24T10:25:32;98691.06;;;15.52;72.61
77706;BME280;66874;45.274;5.880;2023-03-24T10:30:40;98699.63;;;15.57;72.26
77706;BME280;66874;45.274;5.880;2023-03-24T10:33:10;98697.97;;;15.54;72.33
77706;BME280;66874;45.274;5.880;2023-03-24T10:35:40;98697.91;;;15.56;72.25
77706;BME280;66874;45.274;5.880;2023-03-24T10:38:26;98704.91;;;15.57;72.04
77706;BME280;66874;45.274;5.880;2023-03-24T10:40:53;98700.69;;;15.53;72.19
77706;BME280;66874;45.274;5.880;2023-03-24T10:43:19;98691.13;;;15.50;72.04
77706;BME280;66874;45.274;5.880;2023-03-24T10:45:50;98694.53;;;15.52;72.03
77706;BME280;66874;45.274;5.880;2023-03-24T10:48:45;98696.41;;;15.50;71.79
77706;BME280;66874;45.274;5.880;2023-03-24T10:53:47;98689.63;;;15.45;71.69
77706;BME280;66874;45.274;5.880;2023-03-24T10:56:21;98691.69;;;15.38;71.63
77706;BME280;66874;45.274;5.880;2023-03-24T10:59:01;98686.81;;;15.29;71.73
77706;BME280;66874;45.274;5.880;2023-03-24T11:01:28;98682.72;;;15.22;71.62
77706;BME280;66874;45.274;5.880;2023-03-24T11:04:04;98677.31;;;15.25;71.72
77706;BME280;66874;45.274;5.880;2023-03-24T11:06:32;98679.97;;;15.25;71.92
77706;BME280;66874;45.274;5.880;2023-03-24T11:09:20;98673.75;;;15.26;71.13
77706;BME280;66874;45.274;5.880;2023-03-24T11:11:46;98673.72;;;15.27;71.20
77706;BME280;66874;45.274;5.880;2023-03-24T11:14:26;98668.16;;;15.33;71.19
77706;BME280;66874;45.274;5.880;2023-03-24T11:17:02;98661.56;;;15.44;71.35
77706;BME280;66874;45.274;5.880;2023-03-24T11:19:34;98665.75;;;15.48;70.89
77706;BME280;66874;45.274;5.880;2023-03-24T11:22:03;98649.16;;;15.46;70.69
77706;BME280;66874;45.274;5.880;2023-03-24T11:24:35;98656.91;;;15.49;70.54
77706;BME280;66874;45.274;5.880;2023-03-24T11:27:01;98649.81;;;15.51;70.54
77706;BME280;66874;45.274;5.880;2023-03-24T11:29:29;98649.44;;;15.58;70.32
77706;BME280;66874;45.274;5.880;2023-03-24T11:31:58;98640.56;;;15.61;70.40
77706;BME280;66874;45.274;5.880;2023-03-24T11:34:28;98630.88;;;15.61;70.35
77706;BME280;66874;45.274;5.880;2023-03-24T11:37:05;98641.53;;;15.58;70.35
77706;BME280;66874;45.274;5.880;2023-03-24T11:39:33;98642.69;;;15.53;70.28
77706;BME280;66874;45.274;5.880;2023-03-24T11:44:26;98630.91;;;15.41;70.36
77706;BME280;66874;45.274;5.880;2023-03-24T11:46:57;98631.91;;;15.38;70.44
77706;BME280;66874;45.274;5.880;2023-03-24T11:49:29;98630.97;;;15.39;70.60
77706;BME280;66874;45.274;5.880;2023-03-24T11:51:56;98630.91;;;15.41;70.32
77706;BME280;66874;45.274;5.880;2023-03-24T11:54:34;98626.22;;;15.48;70.48
77706;BME280;66874;45.274;5.880;2023-03-24T11:57:07;98628.44;;;15.57;70.30
77706;BME280;66874;45.274;5.880;2023-03-24T11:59:55;98633.91;;;15.52;70.29
77706;BME280;66874;45.274;5.880;2023-03-24T12:08:17;98624.38;;;15.31;70.47
77706;BME280;66874;45.274;5.880;2023-03-24T12:11:16;98635.38;;;15.20;70.98
77706;BME280;66874;45.274;5.880;2023-03-24T12:13:47;98630.44;;;15.12;70.93
77706;BME280;66874;45.274;5.880;2023-03-24T12:16:36;98641.13;;;15.09;70.90
77706;BME280;66874;45.274;5.880;2023-03-24T12:25:02;98641.34;;;14.84;71.16
77706;BME280;66874;45.274;5.880;2023-03-24T12:27:45;98631.16;;;14.77;71.14
77706;BME280;66874;45.274;5.880;2023-03-24T12:30:26;98630.44;;;14.73;71.65
77706;BME280;66874;45.274;5.880;2023-03-24T12:33:02;98641.22;;;14.67;71.78
77706;BME280;66874;45.274;5.880;2023-03-24T12:35:54;98620.28;;;14.64;71.76
77706;BME280;66874;45.274;5.880;2023-03-24T12:38:41;98622.53;;;14.73;71.78
77706;BME280;66874;45.274;5.880;2023-03-24T12:44:26;98608.75;;;14.87;71.79
77706;BME280;66874;45.274;5.880;2023-03-24T12:57:32;98630.88;;;14.83;72.20
77706;BME280;66874;45.274;5.880;2023-03-24T13:00:06;98648.72;;;14.76;72.32
77706;BME280;66874;45.274;5.880;2023-03-24T13:05:06;98684.97;;;14.70;72.65
77706;BME280;66874;45.274;5.880;2023-03-24T13:07:35;98673.81;;;14.64;72.88
77706;BME280;66874;45.274;5.880;2023-03-24T13:12:53;98671.81;;;14.49;73.71
77706;BME280;66874;45.274;5.880;2023-03-24T13:15:40;98678.78;;;14.49;73.86
77706;BME280;66874;45.274;5.880;2023-03-24T13:18:20;98671.66;;;14.52;73.99
77706;BME280;66874;45.274;5.880;2023-03-24T13:20:59;98666.38;;;14.52;74.24
77706;BME280;66874;45.274;5.880;2023-03-24T13:26:38;98665.50;;;14.53;74.56
77706;BME280;66874;45.274;5.880;2023-03-24T13:34:30;98635.41;;;14.37;75.01
77706;BME280;66874;45.274;5.880;2023-03-24T13:37:11;98624.72;;;14.41;74.81
77706;BME280;66874;45.274;5.880;2023-03-24T13:39:38;98619.09;;;14.51;74.80
77706;BME280;66874;45.274;5.880;2023-03-24T13:42:04;98619.75;;;14.56;74.68
77706;BME280;66874;45.274;5.880;2023-03-24T13:44:37;98608.88;;;14.63;75.20
77706;BME280;66874;45.274;5.880;2023-03-24T13:47:09;98591.56;;;14.78;74.99
77706;BME280;66874;45.274;5.880;2023-03-24T13:49:35;98580.38;;;14.94;74.65
77706;BME280;66874;45.274;5.880;2023-03-24T13:52:18;98574.75;;;15.01;74.43
77706;BME280;66874;45.274;5.880;2023-03-24T13:54:46;98568.28;;;15.08;74.30
77706;BME280;66874;45.274;5.880;2023-03-24T13:57:19;98570.91;;;15.08;74.04
77706;BME280;66874;45.274;5.880;2023-03-24T14:00:00;98565.56;;;15.10;74.06
77706;BME280;66874;45.274;5.880;2023-03-24T14:05:28;98563.78;;;15.10;73.84
77706;BME280;66874;45.274;5.880;2023-03-24T14:13:01;98567.72;;;15.21;74.10
77706;BME280;66874;45.274;5.880;2023-03-24T14:15:53;98561.72;;;14.98;74.35
77706;BME280;66874;45.274;5.880;2023-03-24T14:26:03;98559.59;;;14.87;74.44
77706;BME280;66874;45.274;5.880;2023-03-24T14:31:01;98550.38;;;14.77;74.53
77706;BME280;66874;45.274;5.880;2023-03-24T14:33:28;98560.41;;;14.69;74.45
77706;BME280;66874;45.274;5.880;2023-03-24T14:36:04;98561.47;;;14.65;74.80
77706;BME280;66874;45.274;5.880;2023-03-24T14:38:40;98562.50;;;14.61;74.39
77706;BME280;66874;45.274;5.880;2023-03-24T14:41:12;98550.75;;;14.48;74.04
77706;BME280;66874;45.274;5.880;2023-03-24T14:56:42;98537.25;;;14.76;73.14
77706;BME280;66874;45.274;5.880;2023-03-24T14:59:32;98530.88;;;14.81;72.35
77706;BME280;66874;45.274;5.880;2023-03-24T15:04:37;98524.81;;;14.79;72.28
77706;BME280;66874;45.274;5.880;2023-03-24T15:07:03;98530.03;;;14.81;72.63
77706;BME280;66874;45.274;5.880;2023-03-24T15:09:30;98516.16;;;14.77;72.48
77706;BME280;66874;45.274;5.880;2023-03-24T15:12:00;98512.59;;;14.78;72.58
77706;BME280;66874;45.274;5.880;2023-03-24T15:14:26;98504.69;;;14.78;72.45
77706;BME280;66874;45.274;5.880;2023-03-24T15:16:57;98506.47;;;14.78;72.14
77706;BME280;66874;45.274;5.880;2023-03-24T15:19:27;98506.59;;;14.75;71.79
77706;BME280;66874;45.274;5.880;2023-03-24T15:22:00;98501.53;;;14.70;71.45
77706;BME280;66874;45.274;5.880;2023-03-24T15:24:50;98508.81;;;14.65;71.26
77706;BME280;66874;45.274;5.880;2023-03-24T15:27:17;98515.19;;;14.59;71.06
77706;BME280;66874;45.274;5.880;2023-03-24T15:29:44;98504.06;;;14.53;70.97
77706;BME280;66874;45.274;5.880;2023-03-24T15:32:21;98502.44;;;14.50;70.97
77706;BME280;66874;45.274;5.880;2023-03-24T15:34:53;98506.00;;;14.49;71.12
77706;BME280;66874;45.274;5.880;2023-03-24T15:37:35;98494.53;;;14.50;71.02
77706;BME280;66874;45.274;5.880;2023-03-24T15:40:02;98496.34;;;14.48;71.08
77706;BME280;66874;45.274;5.880;2023-03-24T15:42:30;98496.34;;;14.48;71.06
77706;BME280;66874;45.274;5.880;2023-03-24T15:45:27;98506.22;;;14.43;70.89
77706;BME280;66874;45.274;5.880;2023-03-24T15:47:52;98500.25;;;14.39;70.72
77706;BME280;66874;45.274;5.880;2023-03-24T15:50:33;98499.31;;;14.40;71.42
77706;BME280;66874;45.274;5.880;2023-03-24T15:53:22;98492.09;;;14.46;71.12
77706;BME280;66874;45.274;5.880;2023-03-24T15:56:04;98487.72;;;14.45;70.98
77706;BME280;66874;45.274;5.880;2023-03-24T15:58:41;98493.16;;;14.41;70.90
77706;BME280;66874;45.274;5.880;2023-03-24T16:01:10;98496.84;;;14.37;70.92
77706;BME280;66874;45.274;5.880;2023-03-24T16:03:40;98501.28;;;14.35;71.02
77706;BME280;66874;45.274;5.880;2023-03-24T16:06:12;98504.72;;;14.37;71.01
77706;BME280;66874;45.274;5.880;2023-03-24T16:08:40;98513.41;;;14.39;70.87
77706;BME280;66874;45.274;5.880;2023-03-24T16:11:12;98515.19;;;14.39;70.88
77706;BME280;66874;45.274;5.880;2023-03-24T16:13:39;98520.44;;;14.39;71.12
77706;BME280;66874;45.274;5.880;2023-03-24T16:18:44;98523.28;;;14.34;71.66
77706;BME280;66874;45.274;5.880;2023-03-24T16:21:14;98525.31;;;14.28;71.89
77706;BME280;66874;45.274;5.880;2023-03-24T16:23:40;98528.13;;;14.23;72.08
77706;BME280;66874;45.274;5.880;2023-03-24T16:26:15;98540.44;;;14.23;72.31
77706;BME280;66874;45.274;5.880;2023-03-24T16:28:40;98537.81;;;14.23;72.38
77706;BME280;66874;45.274;5.880;2023-03-24T16:31:06;98541.34;;;14.22;72.73
77706;BME280;66874;45.274;5.880;2023-03-24T16:33:32;98548.38;;;14.21;72.79
77706;BME280;66874;45.274;5.880;2023-03-24T16:35:59;98569.53;;;14.18;72.82
77706;BME280;66874;45.274;5.880;2023-03-24T16:38:25;98577.50;;;14.16;72.81
77706;BME280;66874;45.274;5.880;2023-03-24T16:40:53;98592.44;;;14.16;73.05
77706;BME280;66874;45.274;5.880;2023-03-24T16:43:19;98599.59;;;14.12;73.18
77706;BME280;66874;45.274;5.880;2023-03-24T16:45:45;98599.06;;;14.04;73.22
77706;BME280;66874;45.274;5.880;2023-03-24T16:48:11;98609.81;;;13.98;73.42
77706;BME280;66874;45.274;5.880;2023-03-24T16:50:39;98605.69;;;13.92;73.76
77706;BME280;66874;45.274;5.880;2023-03-24T16:53:05;98602.31;;;13.89;73.95
77706;BME280;66874;45.274;5.880;2023-03-24T16:55:35;98608.50;;;13.88;74.22
77706;BME280;66874;45.274;5.880;2023-03-24T16:58:03;98608.50;;;13.88;74.42
77706;BME280;66874;45.274;5.880;2023-03-24T17:00:28;98611.13;;;13.88;74.46
77706;BME280;66874;45.274;5.880;2023-03-24T17:02:55;98616.41;;;13.86;74.55
77706;BME280;66874;45.274;5.880;2023-03-24T17:05:27;98619.13;;;13.85;74.75
77706;BME280;66874;45.274;5.880;2023-03-24T17:07:54;98615.69;;;13.83;74.85
77706;BME280;66874;45.274;5.880;2023-03-24T17:10:21;98623.69;;;13.80;75.14
77706;BME280;66874;45.274;5.880;2023-03-24T17:12:48;98649.19;;;13.78;75.12
77706;BME280;66874;45.274;5.880;2023-03-24T17:15:25;98637.19;;;13.71;74.91
77706;BME280;66874;45.274;5.880;2023-03-24T17:17:51;98652.53;;;13.59;74.83
77706;BME280;66874;45.274;5.880;2023-03-24T17:20:18;98670.41;;;13.50;74.78
77706;BME280;66874;45.274;5.880;2023-03-24T17:22:45;98694.34;;;13.42;74.60
77706;BME280;66874;45.274;5.880;2023-03-24T17:25:16;98687.53;;;13.36;74.88
77706;BME280;66874;45.274;5.880;2023-03-24T17:27:42;98695.50;;;13.35;74.84
77706;BME280;66874;45.274;5.880;2023-03-24T17:30:14;98711.28;;;13.33;75.04
77706;BME280;66874;45.274;5.880;2023-03-24T17:32:40;98732.44;;;13.30;74.99
77706;BME280;66874;45.274;5.880;2023-03-24T17:35:09;98729.94;;;13.26;74.97
77706;BME280;66874;45.274;5.880;2023-03-24T17:37:35;98739.66;;;13.24;75.39
77706;BME280;66874;45.274;5.880;2023-03-24T17:40:01;98753.97;;;13.13;75.74
77706;BME280;66874;45.274;5.880;2023-03-24T17:42:27;98753.56;;;13.01;76.10
77706;BME280;66874;45.274;5.880;2023-03-24T17:44:52;98774.00;;;12.91;76.41
77706;BME280;66874;45.274;5.880;2023-03-24T17:47:18;98769.81;;;12.85;76.50
77706;BME280;66874;45.274;5.880;2023-03-24T17:49:43;98772.78;;;12.75;77.42
77706;BME280;66874;45.274;5.880;2023-03-24T17:52:08;98771.53;;;12.60;77.77
77706;BME280;66874;45.274;5.880;2023-03-24T17:54:34;98793.59;;;12.53;78.16
77706;BME280;66874;45.274;5.880;2023-03-24T17:56:59;98799.09;;;12.45;78.51
77706;BME280;66874;45.274;5.880;2023-03-24T17:59:25;98793.84;;;12.45;78.70
77706;BME280;66874;45.274;5.880;2023-03-24T18:01:50;98791.19;;;12.46;78.80
77706;BME280;66874;45.274;5.880;2023-03-24T18:04:16;98793.13;;;12.41;79.06
77706;BME280;66874;45.274;5.880;2023-03-24T18:06:42;98794.13;;;12.36;79.23
77706;BME280;66874;45.274;5.880;2023-03-24T18:09:08;98800.38;;;12.32;79.36
77706;BME280;66874;45.274;5.880;2023-03-24T18:11:35;98820.59;;;12.28;79.53
77706;BME280;66874;45.274;5.880;2023-03-24T18:14:01;98823.22;;;12.28;79.82
77706;BME280;66874;45.274;5.880;2023-03-24T18:16:27;98829.38;;;12.27;79.81
77706;BME280;66874;45.274;5.880;2023-03-24T18:18:56;98832.88;;;12.28;79.86
77706;BME280;66874;45.274;5.880;2023-03-24T18:21:22;98844.28;;;12.25;79.87
77706;BME280;66874;45.274;5.880;2023-03-24T18:23:48;98854.75;;;12.27;80.07
77706;BME280;66874;45.274;5.880;2023-03-24T18:26:15;98856.53;;;12.26;80.13
77706;BME280;66874;45.274;5.880;2023-03-24T18:28:41;98845.13;;;12.27;79.99
77706;BME280;66874;45.274;5.880;2023-03-24T18:31:10;98840.72;;;12.28;80.20
77706;BME280;66874;45.274;5.880;2023-03-24T18:33:37;98850.31;;;12.29;80.25
77706;BME280;66874;45.274;5.880;2023-03-24T18:36:03;98849.44;;;12.28;80.27
77706;BME280;66874;45.274;5.880;2023-03-24T18:38:29;98845.16;;;12.26;80.49
77706;BME280;66874;45.274;5.880;2023-03-24T18:41:06;98847.06;;;12.20;80.74
77706;BME280;66874;45.274;5.880;2023-03-24T18:43:34;98851.53;;;12.17;80.84
77706;BME280;66874;45.274;5.880;2023-03-24T18:46:04;98841.81;;;12.20;80.82
77706;BME280;66874;45.274;5.880;2023-03-24T18:48:33;98840.88;;;12.23;80.93
77706;BME280;66874;45.274;5.880;2023-03-24T18:50:58;98838.25;;;12.23;80.95
77706;BME280;66874;45.274;5.880;2023-03-24T18:53:24;98839.97;;;12.24;80.93
77706;BME280;66874;45.274;5.880;2023-03-24T18:55:50;98831.31;;;12.20;80.87
77706;BME280;66874;45.274;5.880;2023-03-24T18:58:16;98834.88;;;12.18;80.96
77706;BME280;66874;45.274;5.880;2023-03-24T19:00:46;98832.31;;;12.16;81.18
77706;BME280;66874;45.274;5.880;2023-03-24T19:03:12;98835.84;;;12.15;81.19
77706;BME280;66874;45.274;5.880;2023-03-24T19:05:38;98842.88;;;12.13;81.12
77706;BME280;66874;45.274;5.880;2023-03-24T19:08:03;98835.03;;;12.13;81.36
77706;BME280;66874;45.274;5.880;2023-03-24T19:10:33;98834.09;;;12.14;81.32
77706;BME280;66874;45.274;5.880;2023-03-24T19:12:59;98828.00;;;12.14;81.32
77706;BME280;66874;45.274;5.880;2023-03-24T19:15:25;98826.25;;;12.14;81.39
77706;BME280;66874;45.274;5.880;2023-03-24T19:17:54;98818.28;;;12.17;81.32
77706;BME280;66874;45.274;5.880;2023-03-24T19:20:19;98814.03;;;12.13;81.40
77706;BME280;66874;45.274;5.880;2023-03-24T19:22:45;98816.72;;;12.12;81.60
77706;BME280;66874;45.274;5.880;2023-03-24T19:25:10;98809.78;;;12.11;81.55
77706;BME280;66874;45.274;5.880;2023-03-24T19:27:36;98807.19;;;12.09;81.54
77706;BME280;66874;45.274;5.880;2023-03-24T19:30:01;98823.09;;;12.03;81.61
77706;BME280;66874;45.274;5.880;2023-03-24T19:32:29;98823.19;;;12.00;81.74
77706;BME280;66874;45.274;5.880;2023-03-24T19:34:55;98830.22;;;11.98;81.87
77706;BME280;66874;45.274;5.880;2023-03-24T19:37:21;98823.41;;;11.92;81.80
77706;BME280;66874;45.274;5.880;2023-03-24T19:39:47;98829.59;;;11.90;81.98
77706;BME280;66874;45.274;5.880;2023-03-24T19:42:12;98847.06;;;11.89;81.95
77706;BME280;66874;45.274;5.880;2023-03-24T19:44:38;98858.78;;;11.76;81.88
77706;BME280;66874;45.274;5.880;2023-03-24T19:47:03;98858.22;;;11.65;82.52
77706;BME280;66874;45.274;5.880;2023-03-24T19:49:28;98859.13;;;11.62;82.69
77706;BME280;66874;45.274;5.880;2023-03-24T19:51:54;98867.94;;;11.60;82.57
77706;BME280;66874;45.274;5.880;2023-03-24T19:54:19;98867.06;;;11.59;82.69
77706;BME280;66874;45.274;5.880;2023-03-24T19:56:45;98862.69;;;11.60;82.77
77706;BME280;66874;45.274;5.880;2023-03-24T19:59:10;98870.47;;;11.63;82.38
77706;BME280;66874;45.274;5.880;2023-03-24T20:01:36;98866.00;;;11.66;82.62
77706;BME280;66874;45.274;5.880;2023-03-24T20:04:02;98864.22;;;11.68;82.48
77706;BME280;66874;45.274;5.880;2023-03-24T20:06:27;98868.50;;;11.71;82.56
77706;BME280;66874;45.274;5.880;2023-03-24T20:08:53;98870.28;;;11.70;82.43